sensor_id;sensor_type;location;lat;lon;timestamp;temperature;humidity
18073;DHT22;9161;47.348;9.648;2022-09-09T00:03:25;16.70;99.90
18073;DHT22;9161;47.348;9.648;2022-09-09T00:08:14;16.60;99.90
18073;DHT22;9161;47.348;9.648;2022-09-09T00:13:05;16.60;99.90
18073;DHT22;9161;47.348;9.648;2022-09-09T00:17:59;16.70;99.90
18073;DHT22;9161;47.348;9.648;2022-09-09T00:22:49;16.80;99.90
18073;DHT22;9161;47.348;9.648;2022-09-09T00:27:41;16.70;99.90
18073;DHT22;9161;47.348;9.648;2022-09-09T00:32:30;16.70;99.90
18073;DHT22;9161;47.348;9.648;2022-09-09T00:37:14;16.70;99.90
18073;DHT22;9161;47.348;9.648;2022-09-09T00:42:09;16.60;99.90
18073;DHT22;9161;47.348;9.648;2022-09-09T00:47:12;16.50;99.90
18073;DHT22;9161;47.348;9.648;2022-09-09T00:52:08;16.50;99.90
18073;DHT22;9161;47.348;9.648;2022-09-09T00:57:23;16.50;99.90
18073;DHT22;9161;47.348;9.648;2022-09-09T01:02:16;16.50;99.90
18073;DHT22;9161;47.348;9.648;2022-09-09T01:07:12;16.30;99.90
18073;DHT22;9161;47.348;9.648;2022-09-09T01:12:06;16.30;99.90
18073;DHT22;9161;47.348;9.648;2022-09-09T01:16:54;16.30;99.90
18073;DHT22;9161;47.348;9.648;2022-09-09T01:21:46;16.20;99.90
18073;DHT22;9161;47.348;9.648;2022-09-09T01:26:34;16.20;99.90
18073;DHT22;9161;47.348;9.648;2022-09-09T01:31:21;16.20;99.90
18073;DHT22;9161;47.348;9.648;2022-09-09T01:36:08;16.20;99.90
18073;DHT22;9161;47.348;9.648;2022-09-09T01:40:53;16.30;99.90
18073;DHT22;9161;47.348;9.648;2022-09-09T01:45:39;16.30;99.90
18073;DHT22;9161;47.348;9.648;2022-09-09T01:50:24;16.20;99.90
18073;DHT22;9161;47.348;9.648;2022-09-09T01:55:08;16.00;99.90
18073;DHT22;9161;47.348;9.648;2022-09-09T02:00:00;15.90;99.90
18073;DHT22;9161;47.348;9.648;2022-09-09T02:04:48;16.00;99.90
18073;DHT22;9161;47.348;9.648;2022-09-09T02:09:32;16.00;99.90
18073;DHT22;9161;47.348;9.648;2022-09-09T02:14:18;16.00;99.90
18073;DHT22;9161;47.348;9.648;2022-09-09T02:19:08;16.00;99.90
18073;DHT22;9161;47.348;9.648;2022-09-09T02:23:59;15.90;99.90
18073;DHT22;9161;47.348;9.648;2022-09-09T02:28:47;16.00;99.90
18073;DHT22;9161;47.348;9.648;2022-09-09T02:33:35;16.00;99.90
18073;DHT22;9161;47.348;9.648;2022-09-09T02:38:21;16.00;99.90
18073;DHT22;9161;47.348;9.648;2022-09-09T02:43:08;16.10;99.90
18073;DHT22;9161;47.348;9.648;2022-09-09T02:47:58;16.20;99.90
18073;DHT22;9161;47.348;9.648;2022-09-09T02:52:51;16.20;99.90
18073;DHT22;9161;47.348;9.648;2022-09-09T02:57:37;16.20;99.90
18073;DHT22;9161;47.348;9.648;2022-09-09T03:02:22;16.00;99.90
18073;DHT22;9161;47.348;9.648;2022-09-09T03:07:06;16.00;99.90
18073;DHT22;9161;47.348;9.648;2022-09-09T03:11:50;16.00;99.90
18073;DHT22;9161;47.348;9.648;2022-09-09T03:16:33;16.00;99.90
18073;DHT22;9161;47.348;9.648;2022-09-09T03:21:18;15.90;99.90
18073;DHT22;9161;47.348;9.648;2022-09-09T03:26:02;15.90;99.90
18073;DHT22;9161;47.348;9.648;2022-09-09T03:30:45;15.90;99.90
18073;DHT22;9161;47.348;9.648;2022-09-09T03:35:28;16.00;99.90
18073;DHT22;9161;47.348;9.648;2022-09-09T03:40:14;16.10;99.90
18073;DHT22;9161;47.348;9.648;2022-09-09T03:44:57;16.20;99.90
18073;DHT22;9161;47.348;9.648;2022-09-09T03:49:41;16.20;99.90
18073;DHT22;9161;47.348;9.648;2022-09-09T03:54:25;16.30;99.90
18073;DHT22;9161;47.348;9.648;2022-09-09T03:59:10;16.30;99.90
18073;DHT22;9161;47.348;9.648;2022-09-09T04:03:54;16.20;99.90
18073;DHT22;9161;47.348;9.648;2022-09-09T04:08:40;16.20;99.90
18073;DHT22;9161;47.348;9.648;2022-09-09T04:13:24;16.20;99.90
18073;DHT22;9161;47.348;9.648;2022-09-09T04:18:09;16.10;99.90
18073;DHT22;9161;47.348;9.648;2022-09-09T04:22:57;16.00;99.90
18073;DHT22;9161;47.348;9.648;2022-09-09T04:27:41;16.00;99.90
18073;DHT22;9161;47.348;9.648;2022-09-09T04:32:24;16.00;99.90
18073;DHT22;9161;47.348;9.648;2022-09-09T04:37:10;15.90;99.90
18073;DHT22;9161;47.348;9.648;2022-09-09T04:41:53;15.90;99.90
18073;DHT22;9161;47.348;9.648;2022-09-09T04:46:37;15.90;99.90
18073;DHT22;9161;47.348;9.648;2022-09-09T04:51:22;15.80;99.90
18073;DHT22;9161;47.348;9.648;2022-09-09T04:56:09;15.90;99.90
18073;DHT22;9161;47.348;9.648;2022-09-09T05:00:53;15.90;99.90
18073;DHT22;9161;47.348;9.648;2022-09-09T05:05:36;15.90;99.90
18073;DHT22;9161;47.348;9.648;2022-09-09T05:10:20;16.00;99.90
18073;DHT22;9161;47.348;9.648;2022-09-09T05:15:06;16.00;99.90
18073;DHT22;9161;47.348;9.648;2022-09-09T05:19:50;16.20;99.90
18073;DHT22;9161;47.348;9.648;2022-09-09T05:24:33;16.30;99.90
18073;DHT22;9161;47.348;9.648;2022-09-09T05:29:16;16.40;99.90
18073;DHT22;9161;47.348;9.648;2022-09-09T05:34:02;16.40;99.90
18073;DHT22;9161;47.348;9.648;2022-09-09T05:38:46;16.40;99.90
18073;DHT22;9161;47.348;9.648;2022-09-09T05:43:31;16.50;99.90
18073;DHT22;9161;47.348;9.648;2022-09-09T05:48:15;16.40;99.90
18073;DHT22;9161;47.348;9.648;2022-09-09T05:52:59;16.50;99.90
18073;DHT22;9161;47.348;9.648;2022-09-09T05:57:48;16.40;99.90
18073;DHT22;9161;47.348;9.648;2022-09-09T06:02:33;16.50;99.90
18073;DHT22;9161;47.348;9.648;2022-09-09T06:07:20;16.50;99.90
18073;DHT22;9161;47.348;9.648;2022-09-09T06:12:05;16.60;99.90
18073;DHT22;9161;47.348;9.648;2022-09-09T06:16:49;16.60;99.90
18073;DHT22;9161;47.348;9.648;2022-09-09T06:21:34;16.70;99.90
18073;DHT22;9161;47.348;9.648;2022-09-09T06:26:20;16.70;99.90
18073;DHT22;9161;47.348;9.648;2022-09-09T06:31:07;16.80;99.90
18073;DHT22;9161;47.348;9.648;2022-09-09T06:35:51;16.80;99.90
18073;DHT22;9161;47.348;9.648;2022-09-09T06:40:35;16.90;99.90
18073;DHT22;9161;47.348;9.648;2022-09-09T06:45:18;16.90;99.90
18073;DHT22;9161;47.348;9.648;2022-09-09T06:50:04;16.90;99.90
18073;DHT22;9161;47.348;9.648;2022-09-09T06:54:50;17.00;99.90
18073;DHT22;9161;47.348;9.648;2022-09-09T06:59:33;17.10;99.90
18073;DHT22;9161;47.348;9.648;2022-09-09T07:04:16;17.10;99.90
18073;DHT22;9161;47.348;9.648;2022-09-09T07:09:03;17.20;99.90
18073;DHT22;9161;47.348;9.648;2022-09-09T07:13:47;17.30;99.90
18073;DHT22;9161;47.348;9.648;2022-09-09T07:18:31;17.40;99.90
18073;DHT22;9161;47.348;9.648;2022-09-09T07:23:15;17.40;99.90
18073;DHT22;9161;47.348;9.648;2022-09-09T07:28:00;17.40;99.90
18073;DHT22;9161;47.348;9.648;2022-09-09T07:32:43;17.40;99.90
18073;DHT22;9161;47.348;9.648;2022-09-09T07:37:27;17.50;99.90
18073;DHT22;9161;47.348;9.648;2022-09-09T07:42:11;17.40;99.90
18073;DHT22;9161;47.348;9.648;2022-09-09T07:46:56;17.40;99.90
18073;DHT22;9161;47.348;9.648;2022-09-09T07:51:41;17.40;99.90
18073;DHT22;9161;47.348;9.648;2022-09-09T07:56:26;17.40;99.90
18073;DHT22;9161;47.348;9.648;2022-09-09T08:01:13;17.40;99.90
18073;DHT22;9161;47.348;9.648;2022-09-09T08:06:02;17.50;99.90
18073;DHT22;9161;47.348;9.648;2022-09-09T08:10:46;17.50;99.90
18073;DHT22;9161;47.348;9.648;2022-09-09T08:15:29;17.30;99.90
18073;DHT22;9161;47.348;9.648;2022-09-09T08:20:14;17.20;99.90
18073;DHT22;9161;47.348;9.648;2022-09-09T08:24:59;17.20;99.90
18073;DHT22;9161;47.348;9.648;2022-09-09T08:29:42;17.20;99.90
18073;DHT22;9161;47.348;9.648;2022-09-09T08:34:26;17.10;99.90
18073;DHT22;9161;47.348;9.648;2022-09-09T08:39:12;16.90;99.90
18073;DHT22;9161;47.348;9.648;2022-09-09T08:44:03;16.90;99.90
18073;DHT22;9161;47.348;9.648;2022-09-09T08:48:54;17.00;99.90
18073;DHT22;9161;47.348;9.648;2022-09-09T08:53:42;16.90;99.90
18073;DHT22;9161;47.348;9.648;2022-09-09T08:58:28;16.90;99.90
18073;DHT22;9161;47.348;9.648;2022-09-09T09:03:22;16.90;99.90
18073;DHT22;9161;47.348;9.648;2022-09-09T09:08:15;16.70;99.90
18073;DHT22;9161;47.348;9.648;2022-09-09T09:13:00;16.60;99.90
18073;DHT22;9161;47.348;9.648;2022-09-09T09:17:44;16.40;99.90
18073;DHT22;9161;47.348;9.648;2022-09-09T09:22:41;16.30;99.90
18073;DHT22;9161;47.348;9.648;2022-09-09T09:27:31;16.20;99.90
18073;DHT22;9161;47.348;9.648;2022-09-09T09:32:18;16.20;99.90
18073;DHT22;9161;47.348;9.648;2022-09-09T09:37:14;16.20;99.90
18073;DHT22;9161;47.348;9.648;2022-09-09T09:42:09;16.30;99.90
18073;DHT22;9161;47.348;9.648;2022-09-09T09:47:10;16.20;99.90
18073;DHT22;9161;47.348;9.648;2022-09-09T09:52:00;15.90;99.90
18073;DHT22;9161;47.348;9.648;2022-09-09T09:56:44;15.80;99.90
18073;DHT22;9161;47.348;9.648;2022-09-09T10:01:32;16.20;99.90
18073;DHT22;9161;47.348;9.648;2022-09-09T10:06:16;16.70;99.90
18073;DHT22;9161;47.348;9.648;2022-09-09T10:11:09;16.90;99.90
18073;DHT22;9161;47.348;9.648;2022-09-09T10:16:11;17.40;99.90
18073;DHT22;9161;47.348;9.648;2022-09-09T10:21:02;16.80;99.90
18073;DHT22;9161;47.348;9.648;2022-09-09T10:26:04;16.80;99.90
18073;DHT22;9161;47.348;9.648;2022-09-09T10:31:00;16.80;99.90
18073;DHT22;9161;47.348;9.648;2022-09-09T10:35:51;16.90;99.90
18073;DHT22;9161;47.348;9.648;2022-09-09T10:40:42;17.30;99.90
18073;DHT22;9161;47.348;9.648;2022-09-09T10:45:32;17.40;99.90
18073;DHT22;9161;47.348;9.648;2022-09-09T10:50:35;17.10;99.90
18073;DHT22;9161;47.348;9.648;2022-09-09T10:55:53;17.00;99.90
18073;DHT22;9161;47.348;9.648;2022-09-09T11:00:41;17.10;99.90
18073;DHT22;9161;47.348;9.648;2022-09-09T11:05:28;17.70;99.90
18073;DHT22;9161;47.348;9.648;2022-09-09T11:10:20;18.50;99.90
18073;DHT22;9161;47.348;9.648;2022-09-09T11:15:14;21.80;99.90
18073;DHT22;9161;47.348;9.648;2022-09-09T11:20:00;21.90;99.90
18073;DHT22;9161;47.348;9.648;2022-09-09T11:24:45;22.80;99.90
18073;DHT22;9161;47.348;9.648;2022-09-09T11:29:45;24.30;99.90
18073;DHT22;9161;47.348;9.648;2022-09-09T11:34:42;24.40;99.90
18073;DHT22;9161;47.348;9.648;2022-09-09T11:39:50;24.00;99.90
18073;DHT22;9161;47.348;9.648;2022-09-09T11:44:36;22.90;99.90
18073;DHT22;9161;47.348;9.648;2022-09-09T11:49:27;23.50;99.90
18073;DHT22;9161;47.348;9.648;2022-09-09T11:54:29;24.80;99.90
18073;DHT22;9161;47.348;9.648;2022-09-09T11:59:20;25.00;99.90
18073;DHT22;9161;47.348;9.648;2022-09-09T12:04:29;22.40;99.90
18073;DHT22;9161;47.348;9.648;2022-09-09T12:09:20;19.90;99.90
18073;DHT22;9161;47.348;9.648;2022-09-09T12:14:19;19.70;99.90
18073;DHT22;9161;47.348;9.648;2022-09-09T12:19:12;19.40;99.90
18073;DHT22;9161;47.348;9.648;2022-09-09T12:24:00;20.60;99.90
18073;DHT22;9161;47.348;9.648;2022-09-09T12:28:54;21.50;99.90
18073;DHT22;9161;47.348;9.648;2022-09-09T12:33:44;21.50;99.90
18073;DHT22;9161;47.348;9.648;2022-09-09T12:38:34;21.70;99.90
18073;DHT22;9161;47.348;9.648;2022-09-09T12:43:18;22.20;99.90
18073;DHT22;9161;47.348;9.648;2022-09-09T12:48:05;24.10;99.90
18073;DHT22;9161;47.348;9.648;2022-09-09T12:52:52;24.30;99.90
18073;DHT22;9161;47.348;9.648;2022-09-09T12:57:39;23.30;99.90
18073;DHT22;9161;47.348;9.648;2022-09-09T13:02:25;22.60;99.90
18073;DHT22;9161;47.348;9.648;2022-09-09T13:07:11;22.10;99.90
18073;DHT22;9161;47.348;9.648;2022-09-09T13:11:57;22.00;99.90
18073;DHT22;9161;47.348;9.648;2022-09-09T13:16:40;22.60;99.90
18073;DHT22;9161;47.348;9.648;2022-09-09T13:21:32;22.80;99.90
18073;DHT22;9161;47.348;9.648;2022-09-09T13:26:22;23.20;99.90
18073;DHT22;9161;47.348;9.648;2022-09-09T13:31:22;26.30;99.90
18073;DHT22;9161;47.348;9.648;2022-09-09T13:36:07;29.20;99.90
18073;DHT22;9161;47.348;9.648;2022-09-09T13:40:58;28.70;99.90
18073;DHT22;9161;47.348;9.648;2022-09-09T13:45:52;26.80;99.90
18073;DHT22;9161;47.348;9.648;2022-09-09T13:50:40;26.30;99.90
18073;DHT22;9161;47.348;9.648;2022-09-09T13:55:25;26.10;99.90
18073;DHT22;9161;47.348;9.648;2022-09-09T14:00:11;29.50;99.90
18073;DHT22;9161;47.348;9.648;2022-09-09T14:04:55;31.50;98.70
18073;DHT22;9161;47.348;9.648;2022-09-09T14:09:40;31.20;97.50
18073;DHT22;9161;47.348;9.648;2022-09-09T14:14:24;31.10;97.40
18073;DHT22;9161;47.348;9.648;2022-09-09T14:19:08;30.80;96.60
18073;DHT22;9161;47.348;9.648;2022-09-09T14:23:52;32.00;95.40
18073;DHT22;9161;47.348;9.648;2022-09-09T14:28:37;32.70;92.40
18073;DHT22;9161;47.348;9.648;2022-09-09T14:33:38;30.80;92.00
18073;DHT22;9161;47.348;9.648;2022-09-09T14:38:21;26.30;95.80
18073;DHT22;9161;47.348;9.648;2022-09-09T14:43:05;26.20;96.70
18073;DHT22;9161;47.348;9.648;2022-09-09T14:47:51;25.80;98.20
18073;DHT22;9161;47.348;9.648;2022-09-09T14:52:35;24.30;99.60
18073;DHT22;9161;47.348;9.648;2022-09-09T14:57:18;26.00;98.90
18073;DHT22;9161;47.348;9.648;2022-09-09T15:02:02;28.00;96.80
18073;DHT22;9161;47.348;9.648;2022-09-09T15:06:48;26.70;95.60
18073;DHT22;9161;47.348;9.648;2022-09-09T15:11:36;25.90;98.40
18073;DHT22;9161;47.348;9.648;2022-09-09T15:16:21;25.30;99.70
18073;DHT22;9161;47.348;9.648;2022-09-09T15:21:05;24.20;99.90
18073;DHT22;9161;47.348;9.648;2022-09-09T15:25:54;23.00;99.90
18073;DHT22;9161;47.348;9.648;2022-09-09T15:30:38;22.70;99.90
18073;DHT22;9161;47.348;9.648;2022-09-09T15:35:22;22.60;99.90
18073;DHT22;9161;47.348;9.648;2022-09-09T15:40:06;21.90;99.90
18073;DHT22;9161;47.348;9.648;2022-09-09T15:44:51;21.60;99.90
18073;DHT22;9161;47.348;9.648;2022-09-09T15:49:35;22.80;99.90
18073;DHT22;9161;47.348;9.648;2022-09-09T15:54:19;22.90;99.90
18073;DHT22;9161;47.348;9.648;2022-09-09T15:59:04;24.30;99.90
18073;DHT22;9161;47.348;9.648;2022-09-09T16:03:49;24.90;99.90
18073;DHT22;9161;47.348;9.648;2022-09-09T16:08:33;24.90;99.90
18073;DHT22;9161;47.348;9.648;2022-09-09T16:13:17;24.80;99.90
18073;DHT22;9161;47.348;9.648;2022-09-09T16:18:02;23.70;99.90
18073;DHT22;9161;47.348;9.648;2022-09-09T16:22:49;24.40;99.90
18073;DHT22;9161;47.348;9.648;2022-09-09T16:27:33;22.80;99.90
18073;DHT22;9161;47.348;9.648;2022-09-09T16:32:17;21.60;99.90
18073;DHT22;9161;47.348;9.648;2022-09-09T16:37:00;21.20;99.90
18073;DHT22;9161;47.348;9.648;2022-09-09T16:41:47;20.80;99.90
18073;DHT22;9161;47.348;9.648;2022-09-09T16:46:33;20.60;99.90
18073;DHT22;9161;47.348;9.648;2022-09-09T16:51:19;20.50;99.90
18073;DHT22;9161;47.348;9.648;2022-09-09T16:56:05;20.10;99.90
18073;DHT22;9161;47.348;9.648;2022-09-09T17:00:50;20.20;99.90
18073;DHT22;9161;47.348;9.648;2022-09-09T17:05:39;19.90;99.90
18073;DHT22;9161;47.348;9.648;2022-09-09T17:10:23;19.70;99.90
18073;DHT22;9161;47.348;9.648;2022-09-09T17:15:08;19.50;99.90
18073;DHT22;9161;47.348;9.648;2022-09-09T17:19:53;19.40;99.90
18073;DHT22;9161;47.348;9.648;2022-09-09T17:24:36;19.10;99.90
18073;DHT22;9161;47.348;9.648;2022-09-09T17:29:22;18.90;99.90
18073;DHT22;9161;47.348;9.648;2022-09-09T17:34:08;18.70;99.90
18073;DHT22;9161;47.348;9.648;2022-09-09T17:38:53;18.60;99.90
18073;DHT22;9161;47.348;9.648;2022-09-09T17:43:37;18.50;99.90
18073;DHT22;9161;47.348;9.648;2022-09-09T17:48:22;18.60;99.90
18073;DHT22;9161;47.348;9.648;2022-09-09T17:53:05;18.40;99.90
18073;DHT22;9161;47.348;9.648;2022-09-09T17:57:50;18.30;99.90
18073;DHT22;9161;47.348;9.648;2022-09-09T18:02:34;18.20;99.90
18073;DHT22;9161;47.348;9.648;2022-09-09T18:07:17;18.00;99.90
18073;DHT22;9161;47.348;9.648;2022-09-09T18:12:04;17.90;99.90
18073;DHT22;9161;47.348;9.648;2022-09-09T18:16:49;17.90;99.90
18073;DHT22;9161;47.348;9.648;2022-09-09T18:21:34;17.90;99.90
18073;DHT22;9161;47.348;9.648;2022-09-09T18:26:21;18.00;99.90
18073;DHT22;9161;47.348;9.648;2022-09-09T18:31:06;17.80;99.90
18073;DHT22;9161;47.348;9.648;2022-09-09T18:35:51;17.70;99.90
18073;DHT22;9161;47.348;9.648;2022-09-09T18:40:37;17.80;99.90
18073;DHT22;9161;47.348;9.648;2022-09-09T18:45:21;17.80;99.90
18073;DHT22;9161;47.348;9.648;2022-09-09T18:50:05;17.70;99.90
18073;DHT22;9161;47.348;9.648;2022-09-09T18:54:50;17.70;99.90
18073;DHT22;9161;47.348;9.648;2022-09-09T18:59:34;17.70;99.90
18073;DHT22;9161;47.348;9.648;2022-09-09T19:04:20;17.70;99.90
18073;DHT22;9161;47.348;9.648;2022-09-09T19:09:03;17.60;99.90
18073;DHT22;9161;47.348;9.648;2022-09-09T19:13:51;18.00;99.90
18073;DHT22;9161;47.348;9.648;2022-09-09T19:18:35;17.80;99.90
18073;DHT22;9161;47.348;9.648;2022-09-09T19:23:19;17.80;99.90
18073;DHT22;9161;47.348;9.648;2022-09-09T19:28:04;17.90;99.90
18073;DHT22;9161;47.348;9.648;2022-09-09T19:32:49;17.90;99.90
18073;DHT22;9161;47.348;9.648;2022-09-09T19:37:35;17.90;99.90
18073;DHT22;9161;47.348;9.648;2022-09-09T19:42:19;17.70;99.90
18073;DHT22;9161;47.348;9.648;2022-09-09T19:47:03;17.60;99.90
18073;DHT22;9161;47.348;9.648;2022-09-09T19:51:47;17.50;99.90
18073;DHT22;9161;47.348;9.648;2022-09-09T19:56:32;17.40;99.90
18073;DHT22;9161;47.348;9.648;2022-09-09T20:01:18;17.40;99.90
18073;DHT22;9161;47.348;9.648;2022-09-09T20:06:02;17.40;99.90
18073;DHT22;9161;47.348;9.648;2022-09-09T20:10:52;17.40;99.90
18073;DHT22;9161;47.348;9.648;2022-09-09T20:15:36;17.40;99.90
18073;DHT22;9161;47.348;9.648;2022-09-09T20:20:20;17.30;99.90
18073;DHT22;9161;47.348;9.648;2022-09-09T20:25:04;17.00;99.90
18073;DHT22;9161;47.348;9.648;2022-09-09T20:29:49;17.00;99.90
18073;DHT22;9161;47.348;9.648;2022-09-09T20:34:32;17.00;99.90
18073;DHT22;9161;47.348;9.648;2022-09-09T20:39:17;17.10;99.90
18073;DHT22;9161;47.348;9.648;2022-09-09T20:44:03;17.10;99.90
18073;DHT22;9161;47.348;9.648;2022-09-09T20:48:49;16.90;99.90
18073;DHT22;9161;47.348;9.648;2022-09-09T20:53:33;16.90;99.90
18073;DHT22;9161;47.348;9.648;2022-09-09T20:58:16;16.90;99.90
18073;DHT22;9161;47.348;9.648;2022-09-09T21:03:00;16.80;99.90
18073;DHT22;9161;47.348;9.648;2022-09-09T21:07:44;16.70;99.90
18073;DHT22;9161;47.348;9.648;2022-09-09T21:12:28;16.70;99.90
18073;DHT22;9161;47.348;9.648;2022-09-09T21:17:12;16.70;99.90
18073;DHT22;9161;47.348;9.648;2022-09-09T21:21:55;16.60;99.90
18073;DHT22;9161;47.348;9.648;2022-09-09T21:26:41;16.70;99.90
18073;DHT22;9161;47.348;9.648;2022-09-09T21:31:24;16.70;99.90
18073;DHT22;9161;47.348;9.648;2022-09-09T21:36:11;16.70;99.90
18073;DHT22;9161;47.348;9.648;2022-09-09T21:40:55;16.50;99.90
18073;DHT22;9161;47.348;9.648;2022-09-09T21:45:40;16.30;99.90
18073;DHT22;9161;47.348;9.648;2022-09-09T21:50:24;16.30;99.90
18073;DHT22;9161;47.348;9.648;2022-09-09T21:55:09;16.40;99.90
18073;DHT22;9161;47.348;9.648;2022-09-09T21:59:53;16.40;99.90
18073;DHT22;9161;47.348;9.648;2022-09-09T22:04:38;16.20;99.90
18073;DHT22;9161;47.348;9.648;2022-09-09T22:09:24;16.30;99.90
18073;DHT22;9161;47.348;9.648;2022-09-09T22:14:07;16.40;99.90
18073;DHT22;9161;47.348;9.648;2022-09-09T22:18:52;16.00;99.90
18073;DHT22;9161;47.348;9.648;2022-09-09T22:23:37;16.00;99.90
18073;DHT22;9161;47.348;9.648;2022-09-09T22:28:21;16.00;99.90
18073;DHT22;9161;47.348;9.648;2022-09-09T22:33:05;15.90;99.90
18073;DHT22;9161;47.348;9.648;2022-09-09T22:37:49;15.80;99.90
18073;DHT22;9161;47.348;9.648;2022-09-09T22:42:33;15.80;99.90
18073;DHT22;9161;47.348;9.648;2022-09-09T22:47:17;15.70;99.90
18073;DHT22;9161;47.348;9.648;2022-09-09T22:52:01;15.80;99.90
18073;DHT22;9161;47.348;9.648;2022-09-09T22:56:44;15.70;99.90
18073;DHT22;9161;47.348;9.648;2022-09-09T23:01:29;15.70;99.90
18073;DHT22;9161;47.348;9.648;2022-09-09T23:06:19;15.60;99.90
18073;DHT22;9161;47.348;9.648;2022-09-09T23:11:05;15.70;99.90
18073;DHT22;9161;47.348;9.648;2022-09-09T23:15:49;15.70;99.90
18073;DHT22;9161;47.348;9.648;2022-09-09T23:20:37;15.70;99.90
18073;DHT22;9161;47.348;9.648;2022-09-09T23:25:21;15.70;99.90
18073;DHT22;9161;47.348;9.648;2022-09-09T23:30:05;15.80;99.90
18073;DHT22;9161;47.348;9.648;2022-09-09T23:34:50;15.90;99.90
18073;DHT22;9161;47.348;9.648;2022-09-09T23:39:34;15.80;99.90
18073;DHT22;9161;47.348;9.648;2022-09-09T23:44:18;15.80;99.90
18073;DHT22;9161;47.348;9.648;2022-09-09T23:49:02;15.60;99.90
18073;DHT22;9161;47.348;9.648;2022-09-09T23:53:50;15.40;99.90
18073;DHT22;9161;47.348;9.648;2022-09-09T23:58:35;15.40;99.90
